Flight Track Log - Related Links

Times and Time Zones

All times are in EDT time to prevent confusion due to time zone crossing. See the N966QS flight status page for this flight to view local times or setup timezone preferences in your user account.

Time Position Orientation Groundspeed Altitude Reporting Facility
EDT Latitude Longitude Course Direction KTS MPH feet Rate Location/Type
Thu 10:42:02 PM 47.5461 -122.3181 326° Northwest 174 200 1,300  Level Seattle Center
Thu 10:42:51 PM 47.5797 -122.3514 326° Northwest 176 203 4,300 3,327 Climbing Seattle Center
Thu 10:43:52 PM 47.6128 -122.4094 310° West 203 234 7,400 2,902 Climbing Seattle Center
Thu 10:44:53 PM 47.5625 -122.4475 207° Southwest 229 264 10,200 2,803 Climbing Seattle Center
Thu 10:45:54 PM 47.4911 -122.4153 163° South 253 291 13,100 2,182 Climbing Seattle Center
Thu 10:46:54 PM 47.4050 -122.3717 161° South 333 383 14,600 1,537 Climbing Seattle Center
Thu 10:47:55 PM 47.3064 -122.3222 161° South 377 434 16,200 1,525 Climbing Seattle Center
Thu 10:48:56 PM 47.1906 -122.2650 161° South 407 468 17,700 1,475 Climbing Seattle Center
Thu 10:49:57 PM 47.0889 -122.2181 163° South 425 489 19,200 1,574 Climbing Seattle Center
Thu 10:50:58 PM 46.9736 -122.1611 161° South 440 506 20,900 1,672 Climbing Seattle Center
Thu 10:51:59 PM 46.8561 -122.1050 162° South 448 516 22,600 1,672 Climbing Seattle Center
Thu 10:53:00 PM 46.7361 -122.0475 162° South 456 525 24,300 1,686 Climbing Seattle Center
Thu 10:54:00 PM 46.6128 -121.9906 162° South 469 540 26,000 1,835 Climbing Seattle Center
Thu 10:55:01 PM 46.4581 -121.9556 171° South 474 545 28,000 1,820 Climbing Seattle Center
Thu 10:56:02 PM 46.3278 -121.9281 172° South 478 550 29,700 1,623 Climbing Seattle Center
Thu 10:57:03 PM 46.1981 -121.8992 171° South 486 559 31,300 1,623 Climbing Seattle Center
Thu 10:58:04 PM 46.0633 -121.8683 171° South 491 565 33,000 1,636 Climbing Seattle Center
Thu 10:59:04 PM 45.9272 -121.8386 171° South 495 570 34,600 1,636 Climbing Seattle Center
Thu 11:00:05 PM 45.7944 -121.8086 171° South 489 563 36,300 1,672 Climbing Seattle Center
Thu 11:01:06 PM 45.6592 -121.7797 172° South 492 566 38,000 1,672 Climbing Seattle Center
Thu 11:02:07 PM 45.5261 -121.7514 172° South 486 559 39,700 1,475 Climbing Seattle Center
Thu 11:03:08 PM 45.3931 -121.7219 171° South 486 559 41,000 645 Climbing Seattle Center
Thu 11:04:08 PM 45.2314 -121.6889 172° South 491 565 41,000  Level Seattle Center
Thu 11:05:09 PM 45.0928 -121.6594 171° South 503 579 41,000  Level Seattle Center
Thu 11:06:10 PM 44.9556 -121.6317 172° South 502 578 41,000  Level Seattle Center
Thu 11:07:11 PM 44.8197 -121.6022 171° South 499 574 41,000  Level Seattle Center
Thu 11:08:11 PM 44.6839 -121.5728 171° South 496 571 41,000  Level Seattle Center
Thu 11:09:12 PM 44.5464 -121.5461 172° South 499 574 41,000  Level Seattle Center
Thu 11:10:13 PM 44.4128 -121.5192 172° South 496 571 41,000  Level Seattle Center
Thu 11:11:14 PM 44.2767 -121.4911 172° South 492 566 41,000  Level Seattle Center
Thu 11:12:14 PM 44.1408 -121.4639 172° South 495 570 41,000  Level Seattle Center
Thu 11:13:15 PM 44.0047 -121.4356 171° South 497 572 41,000  Level Seattle Center
Thu 11:14:16 PM 43.8686 -121.4092 172° South 496 571 41,000  Level Seattle Center
Thu 11:15:17 PM 43.7219 -121.3822 172° South 506 582 41,000  Level Seattle Center
Thu 11:16:18 PM 43.5844 -121.3544 172° South 501 577 41,000  Level Seattle Center
Thu 11:17:18 PM 43.4461 -121.3228 171° South 505 581 41,000  Level Seattle Center
Thu 11:18:19 PM 43.3075 -121.2975 172° South 505 581 41,000  Level Seattle Center
Thu 11:19:20 PM 43.1675 -121.2758 174° South 506 582 41,000  Level Seattle Center
Thu 11:20:20 PM 43.0275 -121.2486 172° South 506 582 41,000  Level Seattle Center
Thu 11:21:21 PM 42.8878 -121.2186 171° South 507 583 41,000  Level Seattle Center
Thu 11:22:22 PM 42.7467 -121.1922 172° South 509 586 41,000  Level Seattle Center
Thu 11:23:23 PM 42.6050 -121.1636 172° South 510 587 41,000  Level Seattle Center
Thu 11:24:23 PM 42.4647 -121.1358 172° South 508 585 41,000  Level Seattle Center
Thu 11:25:24 PM 42.3231 -121.1086 172° South 510 587 41,000  Level Seattle Center
Thu 11:26:25 PM 42.1856 -121.0825 172° South 502 578 41,000  Level Seattle Center
Thu 11:27:26 PM 42.0169 -121.0500 172° South 506 582 41,000  Level Seattle Center
Thu 11:28:26 PM 41.8761 -121.0222 172° South 508 585 41,000  Level Seattle Center
Thu 11:29:27 PM 41.7353 -120.9956 172° South 508 585 41,000  Level Seattle Center
Thu 11:30:28 PM 41.5964 -120.9694 172° South 504 580 41,000  Level Seattle Center
Thu 11:31:29 PM 41.4561 -120.9433 172° South 506 582 41,000  Level Seattle Center
Thu 11:32:30 PM 41.3164 -120.9167 172° South 505 581 41,000  Level Seattle Center
Thu 11:33:30 PM 41.1761 -120.8911 172° South 507 583 41,000  Level Seattle Center
Thu 11:34:31 PM 41.0361 -120.8653 172° South 508 585 41,000  Level Seattle Center
Thu 11:35:32 PM 40.8950 -120.8400 172° South 509 586 41,000  Level Seattle Center
Thu 11:36:33 PM 40.7564 -120.8136 172° South 505 581 41,000  Level Seattle Center
Thu 11:37:34 PM 40.6219 -120.7894 172° South 504 580 41,000  Level Seattle Center
Thu 11:38:24 PM 40.5094 -120.7694 172° South 508 585 41,000  Level Oakland Center
Thu 11:39:25 PM 40.3703 -120.7436 172° South 505 581 41,000  Level Oakland Center
Thu 11:40:26 PM 40.2014 -120.7144 172° South 508 585 41,000  Level Oakland Center
Thu 11:41:27 PM 40.0614 -120.6889 172° South 507 583 41,000  Level Oakland Center
Thu 11:42:28 PM 39.9261 -120.6672 173° South 510 587 41,000  Level Oakland Center
Thu 11:43:29 PM 39.7847 -120.6411 172° South 512 589 41,000  Level Oakland Center
Thu 11:44:30 PM 39.6425 -120.6150 172° South 513 590 41,000  Level Oakland Center
Thu 11:45:31 PM 39.5003 -120.5900 172° South 515 593 41,000  Level Oakland Center
Thu 11:46:31 PM 39.3586 -120.5661 173° South 513 590 41,000  Level Oakland Center
Thu 11:47:32 PM 39.2144 -120.5403 172° South 519 597 41,000  Level Oakland Center
Thu 11:48:33 PM 39.0708 -120.5153 172° South 518 596 41,000  Level Oakland Center
Thu 11:49:34 PM 38.9281 -120.4911 172° South 516 594 41,000  Level Oakland Center
Thu 11:50:35 PM 38.7853 -120.4664 172° South 514 592 41,000  Level Oakland Center
Thu 11:51:36 PM 38.6433 -120.4419 172° South 510 587 41,000  Level Oakland Center
Thu 11:52:37 PM 38.5014 -120.4183 173° South 511 588 41,000  Level Oakland Center
Thu 11:53:38 PM 38.3606 -120.3939 172° South 508 585 41,000  Level Oakland Center
Thu 11:54:39 PM 38.2183 -120.3697 172° South 510 587 41,000  Level Oakland Center
Thu 11:55:40 PM 38.0742 -120.3461 173° South 516 594 41,000  Level Oakland Center
Thu 11:56:42 PM 37.9044 -120.3178 172° South 513 590 41,000  Level Oakland Center
Thu 11:57:42 PM 37.7656 -120.2956 173° South 505 581 41,000  Level Oakland Center
Thu 11:58:43 PM 37.6272 -120.2644 170° South 503 579 41,000  Level Oakland Center
Thu 11:59:44 PM 37.4906 -120.2256 167° South 502 578 41,000  Level Oakland Center
Fri 12:00:45 AM 37.3542 -120.1875 167° South 501 577 41,000  Level Oakland Center
Fri 12:01:46 AM 37.2103 -120.1564 170° South 512 589 41,000  Level Oakland Center
Fri 12:02:47 AM 37.0667 -120.1181 168° South 500 575 41,000  Level Oakland Center
Fri 12:03:48 AM 36.9528 -120.0861 167° South 499 574 41,000  Level Oakland Center
Fri 12:04:49 AM 36.7867 -120.0408 168° South 503 579 41,000  Level Oakland Center
Fri 12:05:50 AM 36.6494 -120.0028 167° South 506 582 41,000  Level Oakland Center
Fri 12:06:51 AM 36.5128 -119.9653 168° South 501 577 41,000  Level Oakland Center
Fri 12:07:52 AM 36.3744 -119.9283 168° South 506 582 41,000  Level Oakland Center
Fri 12:08:53 AM 36.2369 -119.8925 168° South 505 581 41,000  Level Oakland Center
Fri 12:09:54 AM 36.1008 -119.8572 168° South 500 575 41,000  Level Oakland Center
Fri 12:10:55 AM 35.9667 -119.8283 170° South 478 550 41,000  Level Oakland Center
Fri 12:11:56 AM 35.8286 -119.7906 167° South 502 578 41,000  Level Oakland Center
Fri 12:12:57 AM 35.6917 -119.7536 168° South 502 578 41,000  Level Oakland Center
Fri 12:13:58 AM 35.5556 -119.7186 168° South 497 572 41,000  Level Oakland Center
Fri 12:14:59 AM 35.4200 -119.6844 168° South 492 566 41,000  Level Oakland Center
Fri 12:15:41 AM 35.3125 -119.6564 168° South 491 565 41,000  Level Los Angeles Center
Fri 12:16:43 AM 35.1883 -119.5861 155° Southeast 494 568 41,000  Level Los Angeles Center
Fri 12:17:45 AM 35.0764 -119.4881 144° Southeast 495 570 41,000  Level Los Angeles Center
Fri 12:18:46 AM 34.9636 -119.3914 145° Southeast 494 568 41,000  Level Los Angeles Center
Fri 12:19:48 AM 34.8497 -119.2947 145° Southeast 497 572 41,000 -98 Level Los Angeles Center
Fri 12:20:49 AM 34.7364 -119.1972 145° Southeast 498 573 40,800 -1,220 Descending Los Angeles Center
Fri 12:21:51 AM 34.6225 -119.1008 145° Southeast 499 574 38,500 -2,585 Descending Los Angeles Center
Fri 12:22:52 AM 34.4839 -118.9892 146° Southeast 498 573 35,500 -2,683 Descending Los Angeles Center
Fri 12:23:54 AM 34.3706 -118.8947 145° Southeast 497 572 33,000 -4,195 Descending Los Angeles Center
Fri 12:24:55 AM 34.2475 -118.8422 161° South 466 536 26,900 -5,415 Descending Los Angeles Center
Fri 12:25:57 AM 34.1244 -118.7950 162° South 466 536 21,900 -5,122 Descending Los Angeles Center
Fri 12:26:58 AM 33.9908 -118.7472 163° South 455 524 16,400 -3,854 Descending Los Angeles Center
Fri 12:28:00 AM 33.8847 -118.7072 163° South 395 455 14,000 -1,268 Descending Los Angeles Center
Fri 12:29:01 AM 33.7936 -118.6761 164° South 386 444 13,800 -934 Descending Los Angeles Center
Fri 12:30:02 AM 33.6878 -118.6383 163° South 331 381 12,100 -1,574 Descending Los Angeles Center
Fri 12:31:03 AM 33.6233 -118.6147 163° South 310 357 10,600 -1,610 Descending Los Angeles Center
Fri 12:32:05 AM 33.5633 -118.5581 142° Southeast 293 337 8,800 -1,822 Descending Los Angeles Center
Fri 12:33:18 AM 33.5658 -118.4461 88° East 287 330 6,500 -2,000 Descending Los Angeles Center
Fri 12:34:20 AM 33.5678 -118.3364 89° East 281 323 4,300 -1,355 Descending Los Angeles Center
Fri 12:35:22 AM 33.5850 -118.2364 78° East 266 306 3,700 -683 Descending Los Angeles Center
Fri 12:36:23 AM 33.5903 -118.1706 84° East 258 297 2,900 -1,033 Descending Los Angeles Center
Fri 12:37:24 AM 33.6222 -118.0958 63° Northeast 241 277 1,600 -634 Descending Los Angeles Center
Fri 12:38:26 AM 33.6742 -118.0542 34° Northeast 230 265 1,600  Level Los Angeles Center
Fri 12:39:28 AM 33.7333 -118.0500 North 209 241 1,600 -148 Level Southern California TRACON
Fri 12:40:28 AM 33.7667 -118.0833 320° Northwest 177 204 1,300 -500 Descending Southern California TRACON
Fri 12:41:28 AM 33.8000 -118.1167 320° Northwest 117 135 600 -700 Descending Southern California TRACON
Fri 12:44:00 AM 33.8167 -118.1500 292° West  Level FlightAware Approximate

Login

Don't have an account? Register now (free) for customized features, flight alerts, and more!